createdAt,value
2022-09-12T00:02:21.057Z,13.70
2022-09-12T00:07:21.014Z,16.70
2022-09-12T00:12:21.002Z,16.70
2022-09-12T00:17:21.036Z,16.70
2022-09-12T00:22:20.999Z,20.60
2022-09-12T00:32:21.008Z,20.60
2022-09-12T00:37:21.547Z,15.30
2022-09-12T00:47:21.022Z,15.30
2022-09-12T00:52:21.017Z,16.40
2022-09-12T00:57:21.067Z,16.40
2022-09-12T01:02:21.036Z,16.40
2022-09-12T01:07:21.031Z,17.10
2022-09-12T01:12:21.192Z,17.10
2022-09-12T01:17:21.035Z,17.10
2022-09-12T01:22:21.195Z,17.60
2022-09-12T01:27:21.031Z,17.60
2022-09-12T01:32:21.110Z,14.70
2022-09-12T02:02:21.091Z,13.30
2022-09-12T02:07:21.048Z,13.30
2022-09-12T02:12:21.059Z,13.30
2022-09-12T02:17:21.063Z,14.80
2022-09-12T02:22:21.048Z,14.80
2022-09-12T02:27:21.044Z,14.80
2022-09-12T02:32:21.046Z,17.70
2022-09-12T02:47:21.064Z,13.60
2022-09-12T02:52:21.068Z,13.60
2022-09-12T02:57:23.052Z,13.60
2022-09-12T03:02:21.124Z,13.10
2022-09-12T03:12:21.071Z,13.10
2022-09-12T03:17:21.073Z,11.30
2022-09-12T03:22:21.081Z,11.30
2022-09-12T03:27:21.079Z,11.30
2022-09-12T03:32:21.078Z,10.60
2022-09-12T03:37:21.110Z,10.60
2022-09-12T03:42:21.095Z,10.60
2022-09-12T03:47:21.095Z,13.30
2022-09-12T03:52:21.089Z,13.30
2022-09-12T04:02:21.277Z,14.30
2022-09-12T04:12:21.088Z,14.30
2022-09-12T04:27:21.096Z,14.90
2022-09-12T04:37:21.205Z,16.10
2022-09-12T04:42:21.126Z,16.10
2022-09-12T05:07:21.113Z,16.80
2022-09-12T05:22:21.122Z,13.50
2022-09-12T05:32:21.127Z,13.90
2022-09-12T05:37:21.128Z,13.90
2022-09-12T05:42:21.137Z,13.90
2022-09-12T05:47:21.141Z,15.50
2022-09-12T05:52:21.136Z,15.50
2022-09-12T05:57:21.133Z,15.50
2022-09-12T06:02:21.171Z,12.60
2022-09-12T06:07:21.141Z,12.60
2022-09-12T06:17:21.139Z,15.70
2022-09-12T06:22:21.138Z,15.70
2022-09-12T06:27:21.158Z,15.70
2022-09-12T06:32:21.152Z,26.50
2022-09-12T06:37:21.145Z,26.50
2022-09-12T06:42:21.139Z,26.50
2022-09-12T06:57:21.151Z,22.60
2022-09-12T07:02:21.229Z,31.00
2022-09-12T07:12:21.345Z,31.00
2022-09-12T07:17:21.159Z,29.10
2022-09-12T07:22:21.168Z,29.10
2022-09-12T07:27:21.206Z,29.10
2022-09-12T07:32:21.168Z,37.20
2022-09-12T07:37:21.159Z,37.20
2022-09-12T07:47:21.192Z,42.10
2022-09-12T07:52:21.178Z,42.10
2022-09-12T07:57:21.189Z,42.10
2022-09-12T08:12:21.179Z,41.30
2022-09-12T08:17:21.256Z,45.30
2022-09-12T08:22:21.192Z,45.30
2022-09-12T08:32:21.181Z,42.30
2022-09-12T08:37:21.195Z,42.30
2022-09-12T08:47:21.193Z,30.50
2022-09-12T08:52:21.187Z,30.50
2022-09-12T08:57:21.202Z,30.50
2022-09-12T09:07:22.488Z,31.30
2022-09-12T09:12:21.202Z,31.30
2022-09-12T09:17:21.205Z,29.00
2022-09-12T09:22:21.208Z,29.00
2022-09-12T09:27:39.372Z,29.00
2022-09-12T09:32:21.225Z,26.30
2022-09-12T09:37:21.206Z,26.30
2022-09-12T09:42:21.219Z,26.30
2022-09-12T09:47:21.228Z,26.70
2022-09-12T09:52:21.219Z,26.70
2022-09-12T09:57:21.229Z,26.70
2022-09-12T10:02:24.074Z,24.20
2022-09-12T10:07:21.230Z,24.20
2022-09-12T10:12:21.218Z,24.20
2022-09-12T10:17:21.236Z,23.90
2022-09-12T10:22:21.224Z,23.90
2022-09-12T10:27:21.248Z,23.90
2022-09-12T10:32:21.230Z,24.80
2022-09-12T10:37:21.234Z,24.80
2022-09-12T10:42:23.405Z,24.80
2022-09-12T10:47:21.276Z,16.80
2022-09-12T10:52:21.246Z,16.80
2022-09-12T10:57:21.251Z,16.80
2022-09-12T11:02:21.315Z,9.80
2022-09-12T11:07:21.266Z,9.80
2022-09-12T11:12:21.257Z,9.80
2022-09-12T11:17:21.255Z,7.90
2022-09-12T11:22:21.254Z,7.90
2022-09-12T11:27:21.259Z,7.90
2022-09-12T11:32:21.280Z,6.50
2022-09-12T11:37:21.277Z,6.50
2022-09-12T11:42:21.263Z,6.50
2022-09-12T11:47:21.263Z,8.50
2022-09-12T11:52:21.267Z,8.50
2022-09-12T11:57:21.279Z,8.50
2022-09-12T12:02:21.329Z,11.10
2022-09-12T12:07:21.269Z,11.10
2022-09-12T12:12:21.285Z,11.10
2022-09-12T12:17:21.279Z,8.00
2022-09-12T12:22:21.296Z,8.00
2022-09-12T12:27:21.292Z,8.00
2022-09-12T12:32:21.287Z,8.40
2022-09-12T12:37:21.285Z,8.40
2022-09-12T12:42:22.486Z,8.40
2022-09-12T12:52:21.311Z,8.10
2022-09-12T12:57:21.314Z,8.10
2022-09-12T13:02:21.389Z,7.40
2022-09-12T13:07:21.304Z,7.40
2022-09-12T13:12:22.447Z,7.40
2022-09-12T13:17:21.313Z,7.20
2022-09-12T13:22:21.295Z,7.20
2022-09-12T13:27:21.310Z,7.20
2022-09-12T13:37:21.307Z,7.10
2022-09-12T13:42:21.307Z,7.10
2022-09-12T13:47:21.317Z,5.90
2022-09-12T13:52:21.318Z,5.90
2022-09-12T13:57:21.317Z,5.90
2022-09-12T14:02:21.391Z,4.70
2022-09-12T14:12:21.327Z,4.70
2022-09-12T14:17:23.661Z,5.50
2022-09-12T14:27:21.338Z,5.50
2022-09-12T14:32:21.344Z,5.60
2022-09-12T14:37:21.323Z,5.60
2022-09-12T14:42:21.346Z,5.60
2022-09-12T14:47:21.332Z,4.80
2022-09-12T14:52:21.343Z,4.80
2022-09-12T15:02:21.356Z,5.00
2022-09-12T15:07:21.402Z,5.00
2022-09-12T15:12:21.353Z,5.00
2022-09-12T15:17:21.362Z,6.10
2022-09-12T15:22:21.350Z,6.10
2022-09-12T15:27:21.356Z,6.10
2022-09-12T15:32:21.377Z,7.70
2022-09-12T15:37:21.366Z,7.70
2022-09-12T15:42:21.360Z,7.70
2022-09-12T15:52:21.367Z,5.40
2022-09-12T16:02:21.433Z,7.40
2022-09-12T16:07:21.371Z,7.40
2022-09-12T16:12:21.379Z,7.40
2022-09-12T16:17:21.385Z,6.10
2022-09-12T16:22:21.392Z,6.10
2022-09-12T16:27:21.389Z,6.10
2022-09-12T16:32:21.379Z,7.40
2022-09-12T16:37:21.378Z,7.40
2022-09-12T16:42:21.391Z,7.40
2022-09-12T16:47:21.393Z,5.40
2022-09-12T16:52:22.725Z,5.40
2022-09-12T16:57:21.393Z,5.40
2022-09-12T17:02:21.474Z,6.60
2022-09-12T17:07:21.396Z,6.60
2022-09-12T17:12:21.415Z,6.60
2022-09-12T17:17:21.414Z,9.50
2022-09-12T17:22:21.412Z,9.50
2022-09-12T17:27:21.408Z,9.50
2022-09-12T17:32:21.449Z,7.50
2022-09-12T17:37:21.420Z,7.50
2022-09-12T17:52:21.409Z,7.00
2022-09-12T17:57:21.455Z,7.00
2022-09-12T18:02:21.470Z,6.20
2022-09-12T18:07:21.442Z,6.20
2022-09-12T18:17:21.443Z,5.60
2022-09-12T18:22:21.437Z,5.60
2022-09-12T18:27:21.448Z,5.60
2022-09-12T18:32:21.539Z,7.50
2022-09-12T18:47:21.446Z,7.70
2022-09-12T18:52:21.448Z,7.70
2022-09-12T19:02:21.445Z,8.70
2022-09-12T19:07:21.446Z,8.70
2022-09-12T19:12:21.455Z,8.70
2022-09-12T19:17:21.467Z,8.80
2022-09-12T19:27:21.469Z,8.80
2022-09-12T19:32:21.463Z,6.10
2022-09-12T19:37:21.461Z,6.10
2022-09-12T19:42:21.525Z,6.10
2022-09-12T19:47:21.460Z,9.30
2022-09-12T19:57:21.479Z,9.30
2022-09-12T20:02:21.545Z,13.80
2022-09-12T20:17:21.480Z,7.70
2022-09-12T20:22:21.501Z,7.70
2022-09-12T20:32:22.605Z,8.30
2022-09-12T20:42:21.490Z,8.30
2022-09-12T20:47:21.493Z,8.40
2022-09-12T20:52:21.499Z,8.40
2022-09-12T20:57:21.502Z,8.40
2022-09-12T21:02:21.638Z,12.00
2022-09-12T21:12:21.497Z,12.00
2022-09-12T21:17:21.506Z,10.40
2022-09-12T21:22:21.506Z,10.40
2022-09-12T21:27:21.514Z,10.40
2022-09-12T21:32:21.498Z,10.80
2022-09-12T21:42:21.528Z,10.80
2022-09-12T21:47:21.716Z,8.80
2022-09-12T21:52:21.518Z,8.80
2022-09-12T22:02:21.572Z,9.00
2022-09-12T22:07:21.528Z,9.00
2022-09-12T22:52:21.547Z,11.70
2022-09-12T23:17:21.556Z,13.40
2022-09-12T23:32:21.565Z,14.40
2022-09-12T23:37:21.555Z,14.40
2022-09-12T23:42:21.556Z,14.40
2022-09-12T23:57:21.575Z,15.60
